Baraga, MI

5:18 AM EDT on July 05, 2015 (GMT -0400)
MQT_Meso | | Change Station
CLOSE
Current Station
Personal Weather Station
Location: Baraga, MI
Elevation: 614 ft
Nearby Weather Stations

Elev 614 ft 46.77 °N, 88.49 °W | Updated 38 minutes ago

Clear
Clear
55 °F
Feels Like 55 °F
N
0
Wind Variable Wind from North
Gusts 0.0 mph

Today
High -- | Low -- °F
--% Chance of Precip.
Yesterday
High -- | Low -- °F
Precip. -- in
6:06 AM 9:50 PM
Waning Gibbous, 86% visible
Pressure 29.94 in
Visibility 9.0 miles
Clouds Clear
Dew Point 55 °F
Humidity 100%
Rainfall in
Snow Depth Not available.
UV 0 out of 12
Pollen 4.30 out of 12
Air Quality Not available.
Flu Activity Not available.
METAR KCMX 050853Z AUTO 16003KT 9SM CLR 13/12 A2994 RMK AO2 SLP139 T01330117 55007

More Conditions Fewer Conditions

Pressure 29.94 in
Visibility 9.0 miles
Clouds Clear
Dew Point 55 °F
Humidity 100%
Rainfall in
Snow Depth Not available.
UV 0 out of 12
Pollen 4.30 out of 12
Air Quality Not available.
Flu Activity Not available.
METAR KCMX 050853Z AUTO 16003KT 9SM CLR 13/12 A2994 RMK AO2 SLP139 T01330117 55007

More Conditions Fewer Conditions

10-Day Weather Forecast

×

Almanac

Astronomy

Jul. 05, 2015 Rise Set
Actual Time
Civil Twilight
Nautical Twilight
Astronomical Twilight
Moon
Length of Visible Light
Length of Day
Tomorrow will be .
, % of the Moon is Illuminated

Today's Extremes

State Highs State Lows

Community

WunderPhotos

Upload Photos

1,835,218 photos uploaded!

WunderBlogs® & News

Nearby

Air Quality

  Air Quality AQ Index Pollutant
Not available.

Snow Depth

Station Depth Elevation

Earthquake Activity

City Distance Mag. Time & Date
Minimum magnitude displayed is 2.5.

Coastal Water Temperatures

Place Temperature

Stations

Nearby Weather Stations

Station Location Temp. Windchill Dew Point Humidity Wind Precip. Elev Updated Type